sensor_id;sensor_type;location;lat;lon;timestamp;P1;durP1;ratioP1;P2;durP2;ratioP2
37451;SDS011;23314;51.114;6.900;2023-02-10T00:00:24;50.33;;;33.57;;
37451;SDS011;23314;51.114;6.900;2023-02-10T00:02:49;48.20;;;33.47;;
37451;SDS011;23314;51.114;6.900;2023-02-10T00:05:14;49.97;;;32.90;;
37451;SDS011;23314;51.114;6.900;2023-02-10T00:07:40;49.90;;;32.13;;
37451;SDS011;23314;51.114;6.900;2023-02-10T00:10:05;46.07;;;31.37;;
37451;SDS011;23314;51.114;6.900;2023-02-10T00:12:31;49.07;;;31.90;;
37451;SDS011;23314;51.114;6.900;2023-02-10T00:14:56;41.33;;;29.67;;
37451;SDS011;23314;51.114;6.900;2023-02-10T00:17:22;50.40;;;32.53;;
37451;SDS011;23314;51.114;6.900;2023-02-10T00:19:48;43.03;;;30.63;;
37451;SDS011;23314;51.114;6.900;2023-02-10T00:22:13;45.37;;;31.00;;
37451;SDS011;23314;51.114;6.900;2023-02-10T00:24:39;49.33;;;32.07;;
37451;SDS011;23314;51.114;6.900;2023-02-10T00:27:04;47.97;;;32.07;;
37451;SDS011;23314;51.114;6.900;2023-02-10T00:29:31;46.43;;;32.20;;
37451;SDS011;23314;51.114;6.900;2023-02-10T00:31:57;45.33;;;31.57;;
37451;SDS011;23314;51.114;6.900;2023-02-10T00:34:22;50.47;;;31.17;;
37451;SDS011;23314;51.114;6.900;2023-02-10T00:36:49;48.60;;;31.47;;
37451;SDS011;23314;51.114;6.900;2023-02-10T00:39:15;51.20;;;30.73;;
37451;SDS011;23314;51.114;6.900;2023-02-10T00:41:42;48.53;;;31.53;;
37451;SDS011;23314;51.114;6.900;2023-02-10T00:44:07;49.30;;;31.60;;
37451;SDS011;23314;51.114;6.900;2023-02-10T00:46:33;45.33;;;31.40;;
37451;SDS011;23314;51.114;6.900;2023-02-10T00:48:58;49.37;;;30.80;;
37451;SDS011;23314;51.114;6.900;2023-02-10T00:51:24;43.70;;;30.63;;
37451;SDS011;23314;51.114;6.900;2023-02-10T00:53:49;46.60;;;31.13;;
37451;SDS011;23314;51.114;6.900;2023-02-10T00:56:16;45.30;;;30.87;;
37451;SDS011;23314;51.114;6.900;2023-02-10T00:58:43;49.90;;;30.50;;
37451;SDS011;23314;51.114;6.900;2023-02-10T01:01:09;45.20;;;29.47;;
37451;SDS011;23314;51.114;6.900;2023-02-10T01:03:35;46.67;;;29.63;;
37451;SDS011;23314;51.114;6.900;2023-02-10T01:06:00;51.23;;;32.07;;
37451;SDS011;23314;51.114;6.900;2023-02-10T01:08:26;47.37;;;30.90;;
37451;SDS011;23314;51.114;6.900;2023-02-10T01:11:02;44.13;;;30.47;;
37451;SDS011;23314;51.114;6.900;2023-02-10T01:13:30;50.37;;;31.03;;
37451;SDS011;23314;51.114;6.900;2023-02-10T01:15:56;44.60;;;30.03;;
37451;SDS011;23314;51.114;6.900;2023-02-10T01:18:21;46.93;;;30.47;;
37451;SDS011;23314;51.114;6.900;2023-02-10T01:20:47;44.73;;;30.60;;
37451;SDS011;23314;51.114;6.900;2023-02-10T01:23:13;49.10;;;32.17;;
37451;SDS011;23314;51.114;6.900;2023-02-10T01:25:38;46.33;;;32.53;;
37451;SDS011;23314;51.114;6.900;2023-02-10T01:28:04;50.40;;;32.87;;
37451;SDS011;23314;51.114;6.900;2023-02-10T01:30:30;46.93;;;32.43;;
37451;SDS011;23314;51.114;6.900;2023-02-10T01:32:56;50.83;;;32.50;;
37451;SDS011;23314;51.114;6.900;2023-02-10T01:35:21;47.73;;;32.73;;
37451;SDS011;23314;51.114;6.900;2023-02-10T01:37:47;51.90;;;32.63;;
37451;SDS011;23314;51.114;6.900;2023-02-10T01:40:12;48.07;;;33.53;;
37451;SDS011;23314;51.114;6.900;2023-02-10T01:42:38;47.03;;;32.33;;
37451;SDS011;23314;51.114;6.900;2023-02-10T01:45:17;51.20;;;33.10;;
37451;SDS011;23314;51.114;6.900;2023-02-10T01:47:42;50.50;;;32.90;;
37451;SDS011;23314;51.114;6.900;2023-02-10T01:50:10;45.70;;;31.47;;
37451;SDS011;23314;51.114;6.900;2023-02-10T01:52:36;51.30;;;33.73;;
37451;SDS011;23314;51.114;6.900;2023-02-10T01:55:04;53.33;;;32.63;;
37451;SDS011;23314;51.114;6.900;2023-02-10T01:57:32;48.40;;;33.40;;
37451;SDS011;23314;51.114;6.900;2023-02-10T01:59:59;54.97;;;32.40;;
37451;SDS011;23314;51.114;6.900;2023-02-10T02:02:31;49.60;;;32.73;;
37451;SDS011;23314;51.114;6.900;2023-02-10T02:05:01;51.00;;;33.30;;
37451;SDS011;23314;51.114;6.900;2023-02-10T02:07:28;45.40;;;32.10;;
37451;SDS011;23314;51.114;6.900;2023-02-10T02:09:57;48.17;;;33.17;;
37451;SDS011;23314;51.114;6.900;2023-02-10T02:12:26;49.67;;;32.17;;
37451;SDS011;23314;51.114;6.900;2023-02-10T02:18:02;49.80;;;33.13;;
37451;SDS011;23314;51.114;6.900;2023-02-10T02:29:08;52.80;;;32.83;;
37451;SDS011;23314;51.114;6.900;2023-02-10T02:36:58;52.57;;;33.37;;
37451;SDS011;23314;51.114;6.900;2023-02-10T02:39:47;50.73;;;33.20;;
37451;SDS011;23314;51.114;6.900;2023-02-10T02:42:28;52.77;;;33.47;;
37451;SDS011;23314;51.114;6.900;2023-02-10T02:45:03;48.67;;;33.97;;
37451;SDS011;23314;51.114;6.900;2023-02-10T02:50:38;55.20;;;34.90;;
37451;SDS011;23314;51.114;6.900;2023-02-10T02:53:28;53.13;;;35.00;;
37451;SDS011;23314;51.114;6.900;2023-02-10T03:01:15;51.43;;;33.33;;
37451;SDS011;23314;51.114;6.900;2023-02-10T03:03:49;58.17;;;34.17;;
37451;SDS011;23314;51.114;6.900;2023-02-10T03:06:16;59.93;;;35.93;;
37451;SDS011;23314;51.114;6.900;2023-02-10T03:08:41;58.93;;;36.07;;
37451;SDS011;23314;51.114;6.900;2023-02-10T03:11:07;53.50;;;34.93;;
37451;SDS011;23314;51.114;6.900;2023-02-10T03:13:32;57.20;;;36.10;;
37451;SDS011;23314;51.114;6.900;2023-02-10T03:15:58;57.67;;;35.77;;
37451;SDS011;23314;51.114;6.900;2023-02-10T03:18:24;55.93;;;35.97;;
37451;SDS011;23314;51.114;6.900;2023-02-10T03:20:50;56.87;;;36.67;;
37451;SDS011;23314;51.114;6.900;2023-02-10T03:23:15;63.07;;;37.87;;
37451;SDS011;23314;51.114;6.900;2023-02-10T03:25:40;60.37;;;36.47;;
37451;SDS011;23314;51.114;6.900;2023-02-10T03:28:09;63.37;;;38.27;;
37451;SDS011;23314;51.114;6.900;2023-02-10T03:30:36;63.97;;;38.93;;
37451;SDS011;23314;51.114;6.900;2023-02-10T03:33:01;66.87;;;39.70;;
37451;SDS011;23314;51.114;6.900;2023-02-10T03:35:27;60.90;;;37.03;;
37451;SDS011;23314;51.114;6.900;2023-02-10T03:37:52;66.83;;;37.97;;
37451;SDS011;23314;51.114;6.900;2023-02-10T03:40:17;64.57;;;38.73;;
37451;SDS011;23314;51.114;6.900;2023-02-10T03:42:43;59.47;;;37.27;;
37451;SDS011;23314;51.114;6.900;2023-02-10T03:45:08;64.40;;;39.23;;
37451;SDS011;23314;51.114;6.900;2023-02-10T03:47:34;68.10;;;40.90;;
37451;SDS011;23314;51.114;6.900;2023-02-10T03:49:59;65.27;;;38.67;;
37451;SDS011;23314;51.114;6.900;2023-02-10T03:52:24;68.30;;;39.13;;
37451;SDS011;23314;51.114;6.900;2023-02-10T03:54:50;64.87;;;38.80;;
37451;SDS011;23314;51.114;6.900;2023-02-10T03:57:15;64.97;;;39.10;;
37451;SDS011;23314;51.114;6.900;2023-02-10T03:59:40;68.17;;;39.50;;
37451;SDS011;23314;51.114;6.900;2023-02-10T04:02:06;69.37;;;40.77;;
37451;SDS011;23314;51.114;6.900;2023-02-10T04:04:31;69.87;;;40.33;;
37451;SDS011;23314;51.114;6.900;2023-02-10T04:06:57;70.33;;;41.13;;
37451;SDS011;23314;51.114;6.900;2023-02-10T04:09:22;74.37;;;41.93;;
37451;SDS011;23314;51.114;6.900;2023-02-10T04:11:48;79.30;;;43.23;;
37451;SDS011;23314;51.114;6.900;2023-02-10T04:14:14;73.40;;;41.50;;
37451;SDS011;23314;51.114;6.900;2023-02-10T04:16:39;74.23;;;41.67;;
37451;SDS011;23314;51.114;6.900;2023-02-10T04:19:04;76.20;;;42.87;;
37451;SDS011;23314;51.114;6.900;2023-02-10T04:21:30;91.17;;;45.43;;
37451;SDS011;23314;51.114;6.900;2023-02-10T04:23:55;88.43;;;45.07;;
37451;SDS011;23314;51.114;6.900;2023-02-10T04:26:21;84.40;;;45.47;;
37451;SDS011;23314;51.114;6.900;2023-02-10T04:28:47;82.33;;;44.77;;
37451;SDS011;23314;51.114;6.900;2023-02-10T04:31:12;83.90;;;45.33;;
37451;SDS011;23314;51.114;6.900;2023-02-10T04:33:38;88.33;;;47.17;;
37451;SDS011;23314;51.114;6.900;2023-02-10T04:36:03;86.43;;;46.60;;
37451;SDS011;23314;51.114;6.900;2023-02-10T04:38:29;93.83;;;48.13;;
37451;SDS011;23314;51.114;6.900;2023-02-10T04:40:54;87.43;;;47.17;;
37451;SDS011;23314;51.114;6.900;2023-02-10T04:43:20;90.10;;;47.17;;
37451;SDS011;23314;51.114;6.900;2023-02-10T04:45:45;85.93;;;47.13;;
37451;SDS011;23314;51.114;6.900;2023-02-10T04:48:11;98.73;;;49.13;;
37451;SDS011;23314;51.114;6.900;2023-02-10T04:50:39;94.53;;;48.33;;
37451;SDS011;23314;51.114;6.900;2023-02-10T04:53:05;101.00;;;50.77;;
37451;SDS011;23314;51.114;6.900;2023-02-10T04:55:31;89.40;;;47.43;;
37451;SDS011;23314;51.114;6.900;2023-02-10T04:57:57;91.30;;;48.73;;
37451;SDS011;23314;51.114;6.900;2023-02-10T05:00:22;100.17;;;50.37;;
37451;SDS011;23314;51.114;6.900;2023-02-10T05:02:47;100.10;;;51.07;;
37451;SDS011;23314;51.114;6.900;2023-02-10T05:05:13;105.27;;;50.97;;
37451;SDS011;23314;51.114;6.900;2023-02-10T05:07:38;99.30;;;50.37;;
37451;SDS011;23314;51.114;6.900;2023-02-10T05:10:04;105.40;;;52.87;;
37451;SDS011;23314;51.114;6.900;2023-02-10T05:12:30;109.67;;;53.70;;
37451;SDS011;23314;51.114;6.900;2023-02-10T05:14:55;107.60;;;51.80;;
37451;SDS011;23314;51.114;6.900;2023-02-10T05:17:21;109.37;;;53.03;;
37451;SDS011;23314;51.114;6.900;2023-02-10T05:19:46;106.83;;;51.60;;
37451;SDS011;23314;51.114;6.900;2023-02-10T05:22:11;105.80;;;52.03;;
37451;SDS011;23314;51.114;6.900;2023-02-10T05:24:37;106.53;;;52.47;;
37451;SDS011;23314;51.114;6.900;2023-02-10T05:27:02;112.07;;;50.63;;
37451;SDS011;23314;51.114;6.900;2023-02-10T05:29:28;103.17;;;51.17;;
37451;SDS011;23314;51.114;6.900;2023-02-10T05:31:53;105.50;;;50.63;;
37451;SDS011;23314;51.114;6.900;2023-02-10T05:34:19;113.60;;;54.73;;
37451;SDS011;23314;51.114;6.900;2023-02-10T05:36:44;103.93;;;52.50;;
37451;SDS011;23314;51.114;6.900;2023-02-10T05:39:10;112.03;;;53.47;;
37451;SDS011;23314;51.114;6.900;2023-02-10T05:41:48;117.67;;;53.60;;
37451;SDS011;23314;51.114;6.900;2023-02-10T05:44:13;113.70;;;54.03;;
37451;SDS011;23314;51.114;6.900;2023-02-10T05:46:38;108.57;;;53.27;;
37451;SDS011;23314;51.114;6.900;2023-02-10T05:49:04;111.80;;;51.67;;
37451;SDS011;23314;51.114;6.900;2023-02-10T05:51:29;117.00;;;54.47;;
37451;SDS011;23314;51.114;6.900;2023-02-10T05:53:55;121.57;;;55.47;;
37451;SDS011;23314;51.114;6.900;2023-02-10T05:56:20;109.20;;;53.50;;
37451;SDS011;23314;51.114;6.900;2023-02-10T05:58:45;103.10;;;51.43;;
37451;SDS011;23314;51.114;6.900;2023-02-10T06:01:11;120.60;;;55.27;;
37451;SDS011;23314;51.114;6.900;2023-02-10T06:03:36;110.57;;;52.83;;
37451;SDS011;23314;51.114;6.900;2023-02-10T06:06:02;119.70;;;55.97;;
37451;SDS011;23314;51.114;6.900;2023-02-10T06:08:27;120.83;;;55.50;;
37451;SDS011;23314;51.114;6.900;2023-02-10T06:10:53;123.40;;;69.18;;
37451;SDS011;23314;51.114;6.900;2023-02-10T06:13:18;125.47;;;60.97;;
37451;SDS011;23314;51.114;6.900;2023-02-10T06:15:44;118.43;;;56.87;;
37451;SDS011;23314;51.114;6.900;2023-02-10T06:18:09;121.57;;;57.37;;
37451;SDS011;23314;51.114;6.900;2023-02-10T06:20:35;102.40;;;51.90;;
37451;SDS011;23314;51.114;6.900;2023-02-10T06:23:00;108.33;;;54.80;;
37451;SDS011;23314;51.114;6.900;2023-02-10T06:25:25;103.10;;;53.33;;
37451;SDS011;23314;51.114;6.900;2023-02-10T06:27:51;108.73;;;52.87;;
37451;SDS011;23314;51.114;6.900;2023-02-10T06:30:16;111.73;;;65.20;;
37451;SDS011;23314;51.114;6.900;2023-02-10T06:32:41;115.27;;;58.87;;
37451;SDS011;23314;51.114;6.900;2023-02-10T06:35:07;122.37;;;71.33;;
37451;SDS011;23314;51.114;6.900;2023-02-10T06:37:32;115.80;;;64.85;;
37451;SDS011;23314;51.114;6.900;2023-02-10T06:39:58;117.07;;;57.97;;
37451;SDS011;23314;51.114;6.900;2023-02-10T06:42:23;118.07;;;68.90;;
37451;SDS011;23314;51.114;6.900;2023-02-10T06:44:48;103.63;;;55.00;;
37451;SDS011;23314;51.114;6.900;2023-02-10T06:47:13;110.53;;;54.47;;
37451;SDS011;23314;51.114;6.900;2023-02-10T06:49:39;122.53;;;58.30;;
37451;SDS011;23314;51.114;6.900;2023-02-10T06:52:04;120.53;;;57.50;;
37451;SDS011;23314;51.114;6.900;2023-02-10T06:54:29;122.03;;;57.60;;
37451;SDS011;23314;51.114;6.900;2023-02-10T06:56:55;119.30;;;66.93;;
37451;SDS011;23314;51.114;6.900;2023-02-10T06:59:20;109.97;;;68.43;;
37451;SDS011;23314;51.114;6.900;2023-02-10T07:01:46;102.00;;;63.58;;
37451;SDS011;23314;51.114;6.900;2023-02-10T07:04:12;99.57;;;64.63;;
37451;SDS011;23314;51.114;6.900;2023-02-10T07:06:37;98.18;;;60.90;;
37451;SDS011;23314;51.114;6.900;2023-02-10T07:09:03;94.88;;;60.30;;
37451;SDS011;23314;51.114;6.900;2023-02-10T07:11:29;91.60;;;57.53;;
37451;SDS011;23314;51.114;6.900;2023-02-10T07:13:56;98.10;;;51.97;;
37451;SDS011;23314;51.114;6.900;2023-02-10T07:16:21;93.40;;;52.65;;
37451;SDS011;23314;51.114;6.900;2023-02-10T07:18:46;89.47;;;50.00;;
37451;SDS011;23314;51.114;6.900;2023-02-10T07:21:12;96.63;;;48.13;;
37451;SDS011;23314;51.114;6.900;2023-02-10T07:23:37;90.80;;;48.33;;
37451;SDS011;23314;51.114;6.900;2023-02-10T07:26:03;91.70;;;47.43;;
37451;SDS011;23314;51.114;6.900;2023-02-10T07:28:29;89.80;;;54.80;;
37451;SDS011;23314;51.114;6.900;2023-02-10T07:30:55;83.70;;;47.70;;
37451;SDS011;23314;51.114;6.900;2023-02-10T07:33:20;91.23;;;45.80;;
37451;SDS011;23314;51.114;6.900;2023-02-10T07:35:45;90.77;;;47.83;;
37451;SDS011;23314;51.114;6.900;2023-02-10T07:38:11;87.20;;;46.70;;
37451;SDS011;23314;51.114;6.900;2023-02-10T07:40:36;94.67;;;45.97;;
37451;SDS011;23314;51.114;6.900;2023-02-10T07:43:01;91.70;;;46.13;;
37451;SDS011;23314;51.114;6.900;2023-02-10T07:45:27;89.33;;;46.20;;
37451;SDS011;23314;51.114;6.900;2023-02-10T07:47:55;93.63;;;46.77;;
37451;SDS011;23314;51.114;6.900;2023-02-10T07:50:22;96.67;;;47.87;;
37451;SDS011;23314;51.114;6.900;2023-02-10T07:52:47;98.37;;;47.43;;
37451;SDS011;23314;51.114;6.900;2023-02-10T07:55:13;97.77;;;47.97;;
37451;SDS011;23314;51.114;6.900;2023-02-10T07:57:39;98.23;;;47.67;;
37451;SDS011;23314;51.114;6.900;2023-02-10T08:00:05;98.90;;;48.43;;
37451;SDS011;23314;51.114;6.900;2023-02-10T08:02:32;99.50;;;47.80;;
37451;SDS011;23314;51.114;6.900;2023-02-10T08:04:57;93.80;;;47.33;;
37451;SDS011;23314;51.114;6.900;2023-02-10T08:07:24;102.43;;;50.13;;
37451;SDS011;23314;51.114;6.900;2023-02-10T08:09:49;100.50;;;49.03;;
37451;SDS011;23314;51.114;6.900;2023-02-10T08:12:14;100.27;;;48.23;;
37451;SDS011;23314;51.114;6.900;2023-02-10T08:14:40;94.03;;;48.77;;
37451;SDS011;23314;51.114;6.900;2023-02-10T08:17:05;96.67;;;50.53;;
37451;SDS011;23314;51.114;6.900;2023-02-10T08:19:30;123.33;;;55.60;;
37451;SDS011;23314;51.114;6.900;2023-02-10T08:21:56;151.53;;;60.80;;
37451;SDS011;23314;51.114;6.900;2023-02-10T08:24:22;105.87;;;52.70;;
37451;SDS011;23314;51.114;6.900;2023-02-10T08:26:47;112.27;;;54.10;;
37451;SDS011;23314;51.114;6.900;2023-02-10T08:29:13;109.30;;;52.40;;
37451;SDS011;23314;51.114;6.900;2023-02-10T08:31:38;99.97;;;50.73;;
37451;SDS011;23314;51.114;6.900;2023-02-10T08:34:04;97.20;;;51.97;;
37451;SDS011;23314;51.114;6.900;2023-02-10T08:36:29;101.07;;;50.33;;
37451;SDS011;23314;51.114;6.900;2023-02-10T08:38:56;98.47;;;51.07;;
37451;SDS011;23314;51.114;6.900;2023-02-10T08:41:22;89.67;;;49.70;;
37451;SDS011;23314;51.114;6.900;2023-02-10T08:43:47;87.30;;;48.50;;
37451;SDS011;23314;51.114;6.900;2023-02-10T08:46:13;89.00;;;48.37;;
37451;SDS011;23314;51.114;6.900;2023-02-10T08:48:39;86.50;;;46.40;;
37451;SDS011;23314;51.114;6.900;2023-02-10T08:51:05;91.87;;;45.73;;
37451;SDS011;23314;51.114;6.900;2023-02-10T08:53:32;93.10;;;47.73;;
37451;SDS011;23314;51.114;6.900;2023-02-10T08:55:58;86.03;;;45.63;;
37451;SDS011;23314;51.114;6.900;2023-02-10T08:58:25;82.63;;;45.30;;
37451;SDS011;23314;51.114;6.900;2023-02-10T09:00:50;88.73;;;44.70;;
37451;SDS011;23314;51.114;6.900;2023-02-10T09:03:15;87.23;;;46.40;;
37451;SDS011;23314;51.114;6.900;2023-02-10T09:05:41;82.57;;;44.30;;
37451;SDS011;23314;51.114;6.900;2023-02-10T09:08:08;75.97;;;42.97;;
37451;SDS011;23314;51.114;6.900;2023-02-10T09:10:34;76.13;;;41.80;;
37451;SDS011;23314;51.114;6.900;2023-02-10T09:12:59;80.63;;;43.60;;
37451;SDS011;23314;51.114;6.900;2023-02-10T09:15:25;79.93;;;43.00;;
37451;SDS011;23314;51.114;6.900;2023-02-10T09:17:50;75.37;;;42.40;;
37451;SDS011;23314;51.114;6.900;2023-02-10T09:20:15;77.70;;;41.63;;
37451;SDS011;23314;51.114;6.900;2023-02-10T09:22:41;69.73;;;41.03;;
37451;SDS011;23314;51.114;6.900;2023-02-10T09:25:06;70.30;;;41.63;;
37451;SDS011;23314;51.114;6.900;2023-02-10T09:27:31;70.97;;;40.67;;
37451;SDS011;23314;51.114;6.900;2023-02-10T09:29:57;69.30;;;40.07;;
37451;SDS011;23314;51.114;6.900;2023-02-10T09:32:22;64.27;;;39.10;;
37451;SDS011;23314;51.114;6.900;2023-02-10T09:34:48;69.20;;;38.67;;
37451;SDS011;23314;51.114;6.900;2023-02-10T09:37:13;63.53;;;38.57;;
37451;SDS011;23314;51.114;6.900;2023-02-10T09:39:38;66.90;;;40.10;;
37451;SDS011;23314;51.114;6.900;2023-02-10T09:44:36;64.27;;;37.13;;
37451;SDS011;23314;51.114;6.900;2023-02-10T09:47:16;61.50;;;37.40;;
37451;SDS011;23314;51.114;6.900;2023-02-10T09:55:51;63.67;;;38.67;;
37451;SDS011;23314;51.114;6.900;2023-02-10T09:58:32;60.93;;;37.97;;
37451;SDS011;23314;51.114;6.900;2023-02-10T10:01:44;63.60;;;38.60;;
37451;SDS011;23314;51.114;6.900;2023-02-10T10:04:17;63.03;;;37.40;;
37451;SDS011;23314;51.114;6.900;2023-02-10T10:09:37;68.73;;;38.80;;
37451;SDS011;23314;51.114;6.900;2023-02-10T10:12:07;64.07;;;38.37;;
37451;SDS011;23314;51.114;6.900;2023-02-10T10:14:37;65.93;;;39.50;;
37451;SDS011;23314;51.114;6.900;2023-02-10T10:20:01;65.40;;;38.23;;
37451;SDS011;23314;51.114;6.900;2023-02-10T10:25:22;61.10;;;37.50;;
37451;SDS011;23314;51.114;6.900;2023-02-10T10:33:39;62.30;;;36.87;;
37451;SDS011;23314;51.114;6.900;2023-02-10T10:36:13;63.50;;;37.30;;
37451;SDS011;23314;51.114;6.900;2023-02-10T10:38:51;68.57;;;38.20;;
37451;SDS011;23314;51.114;6.900;2023-02-10T10:41:18;64.77;;;38.10;;
37451;SDS011;23314;51.114;6.900;2023-02-10T10:43:50;59.37;;;36.10;;
37451;SDS011;23314;51.114;6.900;2023-02-10T10:46:27;58.00;;;38.07;;
37451;SDS011;23314;51.114;6.900;2023-02-10T10:48:52;63.43;;;38.37;;
37451;SDS011;23314;51.114;6.900;2023-02-10T10:51:19;67.93;;;38.90;;
37451;SDS011;23314;51.114;6.900;2023-02-10T10:53:46;68.80;;;39.50;;
37451;SDS011;23314;51.114;6.900;2023-02-10T10:56:32;67.93;;;38.43;;
37451;SDS011;23314;51.114;6.900;2023-02-10T10:59:00;60.53;;;35.33;;
37451;SDS011;23314;51.114;6.900;2023-02-10T11:01:32;66.30;;;38.93;;
37451;SDS011;23314;51.114;6.900;2023-02-10T11:04:03;64.83;;;38.57;;
37451;SDS011;23314;51.114;6.900;2023-02-10T11:06:37;69.77;;;38.13;;
37451;SDS011;23314;51.114;6.900;2023-02-10T11:09:05;81.43;;;43.83;;
37451;SDS011;23314;51.114;6.900;2023-02-10T11:11:41;61.37;;;37.50;;
37451;SDS011;23314;51.114;6.900;2023-02-10T11:16:53;61.03;;;36.50;;
37451;SDS011;23314;51.114;6.900;2023-02-10T11:19:26;60.90;;;36.17;;
37451;SDS011;23314;51.114;6.900;2023-02-10T11:21:54;59.83;;;35.07;;
37451;SDS011;23314;51.114;6.900;2023-02-10T11:24:24;68.13;;;37.43;;
37451;SDS011;23314;51.114;6.900;2023-02-10T11:26:53;61.37;;;37.07;;
37451;SDS011;23314;51.114;6.900;2023-02-10T11:29:21;57.07;;;36.17;;
37451;SDS011;23314;51.114;6.900;2023-02-10T11:31:46;59.30;;;36.97;;
37451;SDS011;23314;51.114;6.900;2023-02-10T11:34:18;60.33;;;36.83;;
37451;SDS011;23314;51.114;6.900;2023-02-10T11:36:46;79.67;;;37.90;;
37451;SDS011;23314;51.114;6.900;2023-02-10T11:39:30;62.97;;;37.23;;
37451;SDS011;23314;51.114;6.900;2023-02-10T11:42:06;56.93;;;36.37;;
37451;SDS011;23314;51.114;6.900;2023-02-10T11:44:33;58.37;;;35.73;;
37451;SDS011;23314;51.114;6.900;2023-02-10T11:47:00;64.73;;;35.67;;
37451;SDS011;23314;51.114;6.900;2023-02-10T11:49:29;51.07;;;33.17;;
37451;SDS011;23314;51.114;6.900;2023-02-10T11:51:59;65.83;;;33.50;;
37451;SDS011;23314;51.114;6.900;2023-02-10T11:54:26;46.07;;;30.67;;
37451;SDS011;23314;51.114;6.900;2023-02-10T11:57:09;50.80;;;28.57;;
37451;SDS011;23314;51.114;6.900;2023-02-10T12:08:28;41.90;;;22.47;;
37451;SDS011;23314;51.114;6.900;2023-02-10T12:13:51;42.03;;;23.43;;
37451;SDS011;23314;51.114;6.900;2023-02-10T12:16:34;43.40;;;22.73;;
37451;SDS011;23314;51.114;6.900;2023-02-10T12:19:08;42.80;;;23.77;;
37451;SDS011;23314;51.114;6.900;2023-02-10T12:21:51;45.30;;;24.07;;
37451;SDS011;23314;51.114;6.900;2023-02-10T12:30:08;38.13;;;24.53;;
37451;SDS011;23314;51.114;6.900;2023-02-10T12:32:50;46.03;;;26.73;;
37451;SDS011;23314;51.114;6.900;2023-02-10T12:38:04;44.20;;;26.73;;
37451;SDS011;23314;51.114;6.900;2023-02-10T12:40:38;43.33;;;27.27;;
37451;SDS011;23314;51.114;6.900;2023-02-10T12:51:01;45.03;;;28.10;;
37451;SDS011;23314;51.114;6.900;2023-02-10T12:53:36;43.73;;;28.03;;
37451;SDS011;23314;51.114;6.900;2023-02-10T12:56:11;41.33;;;27.47;;
37451;SDS011;23314;51.114;6.900;2023-02-10T12:58:45;47.03;;;30.07;;
37451;SDS011;23314;51.114;6.900;2023-02-10T13:01:18;49.30;;;31.07;;
37451;SDS011;23314;51.114;6.900;2023-02-10T13:03:49;47.27;;;28.67;;
37451;SDS011;23314;51.114;6.900;2023-02-10T13:06:20;47.03;;;29.47;;
37451;SDS011;23314;51.114;6.900;2023-02-10T13:08:53;42.83;;;29.63;;
37451;SDS011;23314;51.114;6.900;2023-02-10T13:14:14;43.70;;;28.93;;
37451;SDS011;23314;51.114;6.900;2023-02-10T13:16:55;40.43;;;28.33;;
37451;SDS011;23314;51.114;6.900;2023-02-10T13:19:24;44.03;;;29.17;;
37451;SDS011;23314;51.114;6.900;2023-02-10T13:22:12;42.40;;;28.00;;
37451;SDS011;23314;51.114;6.900;2023-02-10T13:24:58;38.03;;;26.00;;
37451;SDS011;23314;51.114;6.900;2023-02-10T13:28:19;39.60;;;26.97;;
37451;SDS011;23314;51.114;6.900;2023-02-10T13:36:15;36.23;;;26.63;;
37451;SDS011;23314;51.114;6.900;2023-02-10T13:38:50;39.37;;;26.17;;
37451;SDS011;23314;51.114;6.900;2023-02-10T13:41:25;37.70;;;25.47;;
37451;SDS011;23314;51.114;6.900;2023-02-10T13:44:26;41.57;;;26.77;;
37451;SDS011;23314;51.114;6.900;2023-02-10T13:46:58;39.20;;;25.93;;
37451;SDS011;23314;51.114;6.900;2023-02-10T13:49:59;35.33;;;24.17;;
37451;SDS011;23314;51.114;6.900;2023-02-10T13:52:30;34.00;;;24.27;;
37451;SDS011;23314;51.114;6.900;2023-02-10T13:54:59;40.43;;;24.13;;
37451;SDS011;23314;51.114;6.900;2023-02-10T13:57:27;36.03;;;24.37;;
37451;SDS011;23314;51.114;6.900;2023-02-10T14:00:04;34.83;;;23.93;;
37451;SDS011;23314;51.114;6.900;2023-02-10T14:02:41;31.10;;;22.43;;
37451;SDS011;23314;51.114;6.900;2023-02-10T14:05:21;31.40;;;22.43;;
37451;SDS011;23314;51.114;6.900;2023-02-10T14:07:52;32.90;;;22.63;;
37451;SDS011;23314;51.114;6.900;2023-02-10T14:15:31;29.70;;;21.10;;
37451;SDS011;23314;51.114;6.900;2023-02-10T14:20:30;29.17;;;20.50;;
37451;SDS011;23314;51.114;6.900;2023-02-10T14:22:59;46.40;;;28.73;;
37451;SDS011;23314;51.114;6.900;2023-02-10T14:25:30;45.60;;;30.70;;
37451;SDS011;23314;51.114;6.900;2023-02-10T14:28:11;31.13;;;21.10;;
37451;SDS011;23314;51.114;6.900;2023-02-10T14:30:45;29.40;;;21.77;;
37451;SDS011;23314;51.114;6.900;2023-02-10T14:33:20;26.23;;;19.40;;
37451;SDS011;23314;51.114;6.900;2023-02-10T14:35:58;30.00;;;19.37;;
37451;SDS011;23314;51.114;6.900;2023-02-10T14:38:29;26.23;;;18.27;;
37451;SDS011;23314;51.114;6.900;2023-02-10T14:40:57;27.27;;;18.37;;
37451;SDS011;23314;51.114;6.900;2023-02-10T14:43:27;25.77;;;18.70;;
37451;SDS011;23314;51.114;6.900;2023-02-10T14:45:54;28.03;;;18.80;;
37451;SDS011;23314;51.114;6.900;2023-02-10T14:48:22;25.80;;;18.77;;
37451;SDS011;23314;51.114;6.900;2023-02-10T14:53:27;24.43;;;19.00;;
37451;SDS011;23314;51.114;6.900;2023-02-10T14:55:53;25.90;;;18.40;;
37451;SDS011;23314;51.114;6.900;2023-02-10T14:58:20;25.00;;;18.10;;
37451;SDS011;23314;51.114;6.900;2023-02-10T15:03:35;30.43;;;20.23;;
37451;SDS011;23314;51.114;6.900;2023-02-10T15:06:01;30.60;;;20.33;;
37451;SDS011;23314;51.114;6.900;2023-02-10T15:08:34;36.10;;;21.00;;
37451;SDS011;23314;51.114;6.900;2023-02-10T15:11:05;30.93;;;21.13;;
37451;SDS011;23314;51.114;6.900;2023-02-10T15:13:36;28.40;;;20.10;;
37451;SDS011;23314;51.114;6.900;2023-02-10T15:16:07;27.87;;;20.00;;
37451;SDS011;23314;51.114;6.900;2023-02-10T15:18:36;25.07;;;19.43;;
37451;SDS011;23314;51.114;6.900;2023-02-10T15:21:21;29.80;;;20.03;;
37451;SDS011;23314;51.114;6.900;2023-02-10T15:23:50;29.60;;;20.27;;
37451;SDS011;23314;51.114;6.900;2023-02-10T15:26:17;30.83;;;20.60;;
37451;SDS011;23314;51.114;6.900;2023-02-10T15:28:44;29.20;;;19.57;;
37451;SDS011;23314;51.114;6.900;2023-02-10T15:33:51;29.03;;;19.97;;
37451;SDS011;23314;51.114;6.900;2023-02-10T15:36:26;27.13;;;20.40;;
37451;SDS011;23314;51.114;6.900;2023-02-10T15:39:04;30.77;;;20.63;;
37451;SDS011;23314;51.114;6.900;2023-02-10T15:41:33;30.70;;;20.87;;
37451;SDS011;23314;51.114;6.900;2023-02-10T15:43:59;24.87;;;19.47;;
37451;SDS011;23314;51.114;6.900;2023-02-10T15:46:26;28.30;;;19.73;;
37451;SDS011;23314;51.114;6.900;2023-02-10T15:49:03;25.07;;;19.00;;
37451;SDS011;23314;51.114;6.900;2023-02-10T15:51:30;25.90;;;19.03;;
37451;SDS011;23314;51.114;6.900;2023-02-10T15:53:56;24.73;;;18.73;;
37451;SDS011;23314;51.114;6.900;2023-02-10T15:56:22;22.50;;;17.67;;
37451;SDS011;23314;51.114;6.900;2023-02-10T15:58:49;28.97;;;18.93;;
37451;SDS011;23314;51.114;6.900;2023-02-10T16:01:15;24.77;;;17.57;;
37451;SDS011;23314;51.114;6.900;2023-02-10T16:03:40;22.13;;;17.30;;
37451;SDS011;23314;51.114;6.900;2023-02-10T16:06:06;25.17;;;17.60;;
37451;SDS011;23314;51.114;6.900;2023-02-10T16:08:38;22.80;;;17.50;;